sensor_id;sensor_type;location;lat;lon;timestamp;temperature;humidity
78788;DHT22;68131;52.508;5.502;2023-06-05T00:00:28;12.40;71.10
78788;DHT22;68131;52.508;5.502;2023-06-05T00:03:02;12.40;71.20
78788;DHT22;68131;52.508;5.502;2023-06-05T00:05:31;12.40;71.10
78788;DHT22;68131;52.508;5.502;2023-06-05T00:08:00;12.40;71.20
78788;DHT22;68131;52.508;5.502;2023-06-05T00:10:29;12.40;71.20
78788;DHT22;68131;52.508;5.502;2023-06-05T00:12:59;12.40;71.30
78788;DHT22;68131;52.508;5.502;2023-06-05T00:15:28;12.30;71.30
78788;DHT22;68131;52.508;5.502;2023-06-05T00:18:04;12.40;71.30
78788;DHT22;68131;52.508;5.502;2023-06-05T00:20:35;12.40;71.30
78788;DHT22;68131;52.508;5.502;2023-06-05T00:23:04;12.40;71.40
78788;DHT22;68131;52.508;5.502;2023-06-05T00:25:33;12.30;71.40
78788;DHT22;68131;52.508;5.502;2023-06-05T00:28:02;12.20;71.50
78788;DHT22;68131;52.508;5.502;2023-06-05T00:30:31;12.20;71.60
78788;DHT22;68131;52.508;5.502;2023-06-05T00:33:04;12.20;71.70
78788;DHT22;68131;52.508;5.502;2023-06-05T00:35:33;12.20;71.60
78788;DHT22;68131;52.508;5.502;2023-06-05T00:38:02;12.20;71.70
78788;DHT22;68131;52.508;5.502;2023-06-05T00:40:32;12.20;71.70
78788;DHT22;68131;52.508;5.502;2023-06-05T00:43:01;12.20;71.70
78788;DHT22;68131;52.508;5.502;2023-06-05T00:45:32;12.10;71.80
78788;DHT22;68131;52.508;5.502;2023-06-05T00:48:04;12.10;71.80
78788;DHT22;68131;52.508;5.502;2023-06-05T00:50:33;12.10;71.80
78788;DHT22;68131;52.508;5.502;2023-06-05T00:53:04;12.10;71.90
78788;DHT22;68131;52.508;5.502;2023-06-05T00:55:35;12.10;71.90
78788;DHT22;68131;52.508;5.502;2023-06-05T00:58:05;12.20;71.80
78788;DHT22;68131;52.508;5.502;2023-06-05T01:00:34;12.10;71.80
78788;DHT22;68131;52.508;5.502;2023-06-05T01:03:07;12.10;71.80
78788;DHT22;68131;52.508;5.502;2023-06-05T01:05:38;12.10;71.80
78788;DHT22;68131;52.508;5.502;2023-06-05T01:08:12;12.10;72.00
78788;DHT22;68131;52.508;5.502;2023-06-05T01:10:43;12.10;72.10
78788;DHT22;68131;52.508;5.502;2023-06-05T01:13:17;12.00;72.00
78788;DHT22;68131;52.508;5.502;2023-06-05T01:15:51;12.00;71.90
78788;DHT22;68131;52.508;5.502;2023-06-05T01:18:23;12.00;72.00
78788;DHT22;68131;52.508;5.502;2023-06-05T01:21:00;12.00;72.00
78788;DHT22;68131;52.508;5.502;2023-06-05T01:23:34;12.00;72.00
78788;DHT22;68131;52.508;5.502;2023-06-05T01:26:18;12.00;72.00
78788;DHT22;68131;52.508;5.502;2023-06-05T01:28:51;11.90;72.10
78788;DHT22;68131;52.508;5.502;2023-06-05T01:31:21;11.90;72.10
78788;DHT22;68131;52.508;5.502;2023-06-05T01:33:56;11.90;72.00
78788;DHT22;68131;52.508;5.502;2023-06-05T01:36:40;11.90;72.10
78788;DHT22;68131;52.508;5.502;2023-06-05T01:39:12;11.80;72.20
78788;DHT22;68131;52.508;5.502;2023-06-05T01:41:44;11.90;72.20
78788;DHT22;68131;52.508;5.502;2023-06-05T01:44:15;11.90;72.30
78788;DHT22;68131;52.508;5.502;2023-06-05T01:46:45;11.80;72.30
78788;DHT22;68131;52.508;5.502;2023-06-05T01:49:14;11.80;72.30
78788;DHT22;68131;52.508;5.502;2023-06-05T01:51:43;11.80;72.30
78788;DHT22;68131;52.508;5.502;2023-06-05T01:54:19;11.80;72.50
78788;DHT22;68131;52.508;5.502;2023-06-05T01:56:49;11.80;72.50
78788;DHT22;68131;52.508;5.502;2023-06-05T01:59:19;11.70;72.50
78788;DHT22;68131;52.508;5.502;2023-06-05T02:01:49;11.70;72.60
78788;DHT22;68131;52.508;5.502;2023-06-05T02:04:18;11.70;72.70
78788;DHT22;68131;52.508;5.502;2023-06-05T02:06:48;11.70;72.70
78788;DHT22;68131;52.508;5.502;2023-06-05T02:09:21;11.70;72.70
78788;DHT22;68131;52.508;5.502;2023-06-05T02:11:53;11.60;72.70
78788;DHT22;68131;52.508;5.502;2023-06-05T02:14:22;11.60;72.80
78788;DHT22;68131;52.508;5.502;2023-06-05T02:16:53;11.60;72.80
78788;DHT22;68131;52.508;5.502;2023-06-05T02:19:23;11.70;72.80
78788;DHT22;68131;52.508;5.502;2023-06-05T02:21:53;11.70;72.70
78788;DHT22;68131;52.508;5.502;2023-06-05T02:24:25;11.60;72.60
78788;DHT22;68131;52.508;5.502;2023-06-05T02:26:55;11.60;72.70
78788;DHT22;68131;52.508;5.502;2023-06-05T02:29:24;11.60;72.90
78788;DHT22;68131;52.508;5.502;2023-06-05T02:31:54;11.50;72.90
78788;DHT22;68131;52.508;5.502;2023-06-05T02:34:26;11.50;72.90
78788;DHT22;68131;52.508;5.502;2023-06-05T02:36:55;11.50;73.00
78788;DHT22;68131;52.508;5.502;2023-06-05T02:39:27;11.50;73.00
78788;DHT22;68131;52.508;5.502;2023-06-05T02:41:58;11.50;72.90
78788;DHT22;68131;52.508;5.502;2023-06-05T02:44:27;11.50;72.90
78788;DHT22;68131;52.508;5.502;2023-06-05T02:47:06;11.50;72.90
78788;DHT22;68131;52.508;5.502;2023-06-05T02:49:35;11.50;72.80
78788;DHT22;68131;52.508;5.502;2023-06-05T02:52:05;11.50;72.80
78788;DHT22;68131;52.508;5.502;2023-06-05T02:54:37;11.50;72.80
78788;DHT22;68131;52.508;5.502;2023-06-05T02:57:09;11.50;72.80
78788;DHT22;68131;52.508;5.502;2023-06-05T02:59:38;11.50;72.70
78788;DHT22;68131;52.508;5.502;2023-06-05T03:02:12;11.50;72.80
78788;DHT22;68131;52.508;5.502;2023-06-05T03:04:46;11.50;72.80
78788;DHT22;68131;52.508;5.502;2023-06-05T03:07:25;11.50;72.80
78788;DHT22;68131;52.508;5.502;2023-06-05T03:09:58;11.50;72.80
78788;DHT22;68131;52.508;5.502;2023-06-05T03:12:27;11.50;72.80
78788;DHT22;68131;52.508;5.502;2023-06-05T03:14:56;11.40;72.80
78788;DHT22;68131;52.508;5.502;2023-06-05T03:17:27;11.40;72.80
78788;DHT22;68131;52.508;5.502;2023-06-05T03:19:56;11.40;72.90
78788;DHT22;68131;52.508;5.502;2023-06-05T03:22:26;11.40;72.90
78788;DHT22;68131;52.508;5.502;2023-06-05T03:24:58;11.40;72.90
78788;DHT22;68131;52.508;5.502;2023-06-05T03:27:30;11.40;72.90
78788;DHT22;68131;52.508;5.502;2023-06-05T03:29:59;11.40;73.00
78788;DHT22;68131;52.508;5.502;2023-06-05T03:32:30;11.40;73.00
78788;DHT22;68131;52.508;5.502;2023-06-05T03:35:00;11.40;72.90
78788;DHT22;68131;52.508;5.502;2023-06-05T03:37:30;11.40;72.90
78788;DHT22;68131;52.508;5.502;2023-06-05T03:40:01;11.40;73.00
78788;DHT22;68131;52.508;5.502;2023-06-05T03:42:31;11.40;73.10
78788;DHT22;68131;52.508;5.502;2023-06-05T03:45:00;11.40;73.00
78788;DHT22;68131;52.508;5.502;2023-06-05T03:47:30;11.50;73.10
78788;DHT22;68131;52.508;5.502;2023-06-05T03:50:00;11.50;73.20
78788;DHT22;68131;52.508;5.502;2023-06-05T03:52:32;11.50;73.30
78788;DHT22;68131;52.508;5.502;2023-06-05T03:55:08;11.50;73.30
78788;DHT22;68131;52.508;5.502;2023-06-05T03:57:38;11.60;73.30
78788;DHT22;68131;52.508;5.502;2023-06-05T04:00:11;11.60;73.30
78788;DHT22;68131;52.508;5.502;2023-06-05T04:02:46;11.70;73.30
78788;DHT22;68131;52.508;5.502;2023-06-05T04:05:16;11.70;73.50
78788;DHT22;68131;52.508;5.502;2023-06-05T04:07:46;11.70;73.40
78788;DHT22;68131;52.508;5.502;2023-06-05T04:10:19;11.80;73.30
78788;DHT22;68131;52.508;5.502;2023-06-05T04:12:48;11.80;73.20
78788;DHT22;68131;52.508;5.502;2023-06-05T04:15:18;11.80;73.10
78788;DHT22;68131;52.508;5.502;2023-06-05T04:17:48;11.90;72.90
78788;DHT22;68131;52.508;5.502;2023-06-05T04:20:17;11.90;72.90
78788;DHT22;68131;52.508;5.502;2023-06-05T04:22:47;11.90;72.80
78788;DHT22;68131;52.508;5.502;2023-06-05T04:25:19;11.90;72.60
78788;DHT22;68131;52.508;5.502;2023-06-05T04:27:50;12.00;72.50
78788;DHT22;68131;52.508;5.502;2023-06-05T04:30:24;12.00;72.30
78788;DHT22;68131;52.508;5.502;2023-06-05T04:32:57;12.00;72.10
78788;DHT22;68131;52.508;5.502;2023-06-05T04:35:27;12.00;72.00
78788;DHT22;68131;52.508;5.502;2023-06-05T04:37:59;11.90;72.00
78788;DHT22;68131;52.508;5.502;2023-06-05T04:40:33;11.90;71.90
78788;DHT22;68131;52.508;5.502;2023-06-05T04:43:02;12.00;72.00
78788;DHT22;68131;52.508;5.502;2023-06-05T04:45:31;12.00;71.90
78788;DHT22;68131;52.508;5.502;2023-06-05T04:48:01;12.00;71.90
78788;DHT22;68131;52.508;5.502;2023-06-05T04:50:32;12.10;71.80
78788;DHT22;68131;52.508;5.502;2023-06-05T04:53:09;12.10;71.90
78788;DHT22;68131;52.508;5.502;2023-06-05T04:55:43;12.20;71.80
78788;DHT22;68131;52.508;5.502;2023-06-05T04:58:14;12.20;71.60
78788;DHT22;68131;52.508;5.502;2023-06-05T05:00:47;12.20;71.40
78788;DHT22;68131;52.508;5.502;2023-06-05T05:03:20;12.20;71.40
78788;DHT22;68131;52.508;5.502;2023-06-05T05:06:00;12.20;71.50
78788;DHT22;68131;52.508;5.502;2023-06-05T05:08:29;12.20;71.60
78788;DHT22;68131;52.508;5.502;2023-06-05T05:11:08;12.30;71.60
78788;DHT22;68131;52.508;5.502;2023-06-05T05:13:37;12.40;71.50
78788;DHT22;68131;52.508;5.502;2023-06-05T05:16:06;12.50;71.40
78788;DHT22;68131;52.508;5.502;2023-06-05T05:18:43;12.60;71.20
78788;DHT22;68131;52.508;5.502;2023-06-05T05:21:13;12.60;71.10
78788;DHT22;68131;52.508;5.502;2023-06-05T05:23:43;12.70;70.90
78788;DHT22;68131;52.508;5.502;2023-06-05T05:26:18;12.70;70.70
78788;DHT22;68131;52.508;5.502;2023-06-05T05:28:50;12.80;70.70
78788;DHT22;68131;52.508;5.502;2023-06-05T05:31:19;12.80;70.40
78788;DHT22;68131;52.508;5.502;2023-06-05T05:33:51;12.90;70.20
78788;DHT22;68131;52.508;5.502;2023-06-05T05:36:21;12.90;70.10
78788;DHT22;68131;52.508;5.502;2023-06-05T05:38:50;12.90;70.40
78788;DHT22;68131;52.508;5.502;2023-06-05T05:41:22;13.00;70.30
78788;DHT22;68131;52.508;5.502;2023-06-05T05:43:52;13.00;69.90
78788;DHT22;68131;52.508;5.502;2023-06-05T05:46:21;13.10;69.70
78788;DHT22;68131;52.508;5.502;2023-06-05T05:48:51;13.30;69.70
78788;DHT22;68131;52.508;5.502;2023-06-05T05:51:21;13.50;69.30
78788;DHT22;68131;52.508;5.502;2023-06-05T05:53:50;13.60;69.10
78788;DHT22;68131;52.508;5.502;2023-06-05T05:56:24;13.70;68.80
78788;DHT22;68131;52.508;5.502;2023-06-05T05:58:53;13.70;68.40
78788;DHT22;68131;52.508;5.502;2023-06-05T06:01:22;13.70;68.10
78788;DHT22;68131;52.508;5.502;2023-06-05T06:03:52;13.90;68.20
78788;DHT22;68131;52.508;5.502;2023-06-05T06:06:21;14.00;67.70
78788;DHT22;68131;52.508;5.502;2023-06-05T06:08:51;14.20;67.60
78788;DHT22;68131;52.508;5.502;2023-06-05T06:11:23;14.40;67.30
78788;DHT22;68131;52.508;5.502;2023-06-05T06:13:53;14.70;66.50
78788;DHT22;68131;52.508;5.502;2023-06-05T06:16:22;14.80;65.70
78788;DHT22;68131;52.508;5.502;2023-06-05T06:18:54;14.70;65.60
78788;DHT22;68131;52.508;5.502;2023-06-05T06:21:23;14.90;65.60
78788;DHT22;68131;52.508;5.502;2023-06-05T06:23:53;15.00;65.30
78788;DHT22;68131;52.508;5.502;2023-06-05T06:26:26;15.20;65.70
78788;DHT22;68131;52.508;5.502;2023-06-05T06:28:55;15.50;65.20
78788;DHT22;68131;52.508;5.502;2023-06-05T06:31:26;15.50;64.20
78788;DHT22;68131;52.508;5.502;2023-06-05T06:33:55;15.50;64.10
78788;DHT22;68131;52.508;5.502;2023-06-05T06:36:28;15.50;64.70
78788;DHT22;68131;52.508;5.502;2023-06-05T06:38:58;15.80;64.20
78788;DHT22;68131;52.508;5.502;2023-06-05T06:41:32;16.00;63.50
78788;DHT22;68131;52.508;5.502;2023-06-05T06:44:03;16.10;63.30
78788;DHT22;68131;52.508;5.502;2023-06-05T06:46:33;16.40;63.60
78788;DHT22;68131;52.508;5.502;2023-06-05T06:49:02;16.70;61.90
78788;DHT22;68131;52.508;5.502;2023-06-05T06:51:32;16.70;62.20
78788;DHT22;68131;52.508;5.502;2023-06-05T06:54:01;16.90;62.20
78788;DHT22;68131;52.508;5.502;2023-06-05T06:56:33;17.10;61.70
78788;DHT22;68131;52.508;5.502;2023-06-05T06:59:10;17.10;61.40
78788;DHT22;68131;52.508;5.502;2023-06-05T07:01:43;17.50;61.60
78788;DHT22;68131;52.508;5.502;2023-06-05T07:04:13;17.70;60.90
78788;DHT22;68131;52.508;5.502;2023-06-05T07:06:46;17.90;59.90
78788;DHT22;68131;52.508;5.502;2023-06-05T07:09:19;17.70;59.30
78788;DHT22;68131;52.508;5.502;2023-06-05T07:11:53;17.20;60.30
78788;DHT22;68131;52.508;5.502;2023-06-05T07:14:22;16.90;60.90
78788;DHT22;68131;52.508;5.502;2023-06-05T07:16:51;16.80;61.20
78788;DHT22;68131;52.508;5.502;2023-06-05T07:19:22;16.60;61.20
78788;DHT22;68131;52.508;5.502;2023-06-05T07:21:52;16.50;61.60
78788;DHT22;68131;52.508;5.502;2023-06-05T07:24:25;16.50;61.70
78788;DHT22;68131;52.508;5.502;2023-06-05T07:27:00;16.80;61.70
78788;DHT22;68131;52.508;5.502;2023-06-05T07:29:29;17.20;61.10
78788;DHT22;68131;52.508;5.502;2023-06-05T07:31:59;17.50;60.40
78788;DHT22;68131;52.508;5.502;2023-06-05T07:34:32;17.40;59.70
78788;DHT22;68131;52.508;5.502;2023-06-05T07:37:01;17.40;60.10
78788;DHT22;68131;52.508;5.502;2023-06-05T07:39:30;17.40;59.90
78788;DHT22;68131;52.508;5.502;2023-06-05T07:42:02;17.40;60.20
78788;DHT22;68131;52.508;5.502;2023-06-05T07:44:31;17.60;60.20
78788;DHT22;68131;52.508;5.502;2023-06-05T07:47:01;17.80;59.30
78788;DHT22;68131;52.508;5.502;2023-06-05T07:49:30;17.70;58.90
78788;DHT22;68131;52.508;5.502;2023-06-05T07:52:02;17.60;59.40
78788;DHT22;68131;52.508;5.502;2023-06-05T07:54:31;17.50;59.60
78788;DHT22;68131;52.508;5.502;2023-06-05T07:57:04;17.60;59.60
78788;DHT22;68131;52.508;5.502;2023-06-05T07:59:34;17.80;59.30
78788;DHT22;68131;52.508;5.502;2023-06-05T08:02:04;17.90;59.20
78788;DHT22;68131;52.508;5.502;2023-06-05T08:04:33;17.90;59.80
78788;DHT22;68131;52.508;5.502;2023-06-05T08:07:02;18.10;59.60
78788;DHT22;68131;52.508;5.502;2023-06-05T08:09:31;18.30;58.60
78788;DHT22;68131;52.508;5.502;2023-06-05T08:12:05;18.20;58.40
78788;DHT22;68131;52.508;5.502;2023-06-05T08:14:35;18.20;58.70
78788;DHT22;68131;52.508;5.502;2023-06-05T08:17:04;18.10;58.40
78788;DHT22;68131;52.508;5.502;2023-06-05T08:19:33;18.00;59.00
78788;DHT22;68131;52.508;5.502;2023-06-05T08:22:03;18.10;58.60
78788;DHT22;68131;52.508;5.502;2023-06-05T08:24:32;18.00;58.90
78788;DHT22;68131;52.508;5.502;2023-06-05T08:27:05;18.10;59.00
78788;DHT22;68131;52.508;5.502;2023-06-05T08:29:35;18.30;59.40
78788;DHT22;68131;52.508;5.502;2023-06-05T08:32:05;18.60;59.10
78788;DHT22;68131;52.508;5.502;2023-06-05T08:34:34;18.80;58.40
78788;DHT22;68131;52.508;5.502;2023-06-05T08:37:06;18.80;58.40
78788;DHT22;68131;52.508;5.502;2023-06-05T08:39:38;18.90;58.50
78788;DHT22;68131;52.508;5.502;2023-06-05T08:42:12;19.00;58.30
78788;DHT22;68131;52.508;5.502;2023-06-05T08:44:44;19.00;58.00
78788;DHT22;68131;52.508;5.502;2023-06-05T08:47:16;19.00;58.70
78788;DHT22;68131;52.508;5.502;2023-06-05T08:49:45;19.10;57.40
78788;DHT22;68131;52.508;5.502;2023-06-05T08:52:15;19.00;57.80
78788;DHT22;68131;52.508;5.502;2023-06-05T08:54:44;19.10;57.80
78788;DHT22;68131;52.508;5.502;2023-06-05T08:57:16;19.30;57.70
78788;DHT22;68131;52.508;5.502;2023-06-05T08:59:46;19.40;57.60
78788;DHT22;68131;52.508;5.502;2023-06-05T09:02:15;19.50;57.50
78788;DHT22;68131;52.508;5.502;2023-06-05T09:04:44;19.30;57.50
78788;DHT22;68131;52.508;5.502;2023-06-05T09:07:16;19.30;57.90
78788;DHT22;68131;52.508;5.502;2023-06-05T09:09:45;19.50;57.90
78788;DHT22;68131;52.508;5.502;2023-06-05T09:12:17;19.80;57.00
78788;DHT22;68131;52.508;5.502;2023-06-05T09:14:46;19.90;56.60
78788;DHT22;68131;52.508;5.502;2023-06-05T09:17:16;19.90;57.20
78788;DHT22;68131;52.508;5.502;2023-06-05T09:19:47;20.10;56.90
78788;DHT22;68131;52.508;5.502;2023-06-05T09:22:16;20.20;56.30
78788;DHT22;68131;52.508;5.502;2023-06-05T09:25:00;20.10;56.40
78788;DHT22;68131;52.508;5.502;2023-06-05T09:27:32;20.20;56.60
78788;DHT22;68131;52.508;5.502;2023-06-05T09:30:06;20.30;56.20
78788;DHT22;68131;52.508;5.502;2023-06-05T09:32:38;20.50;56.30
78788;DHT22;68131;52.508;5.502;2023-06-05T09:35:16;20.80;56.20
78788;DHT22;68131;52.508;5.502;2023-06-05T09:37:45;21.10;55.80
78788;DHT22;68131;52.508;5.502;2023-06-05T09:40:17;21.20;55.40
78788;DHT22;68131;52.508;5.502;2023-06-05T09:42:49;21.40;55.50
78788;DHT22;68131;52.508;5.502;2023-06-05T09:45:18;21.50;55.00
78788;DHT22;68131;52.508;5.502;2023-06-05T09:47:47;21.30;54.50
78788;DHT22;68131;52.508;5.502;2023-06-05T09:50:21;20.90;55.10
78788;DHT22;68131;52.508;5.502;2023-06-05T09:52:51;20.80;55.20
78788;DHT22;68131;52.508;5.502;2023-06-05T09:55:22;20.60;55.40
78788;DHT22;68131;52.508;5.502;2023-06-05T09:57:58;20.60;55.50
78788;DHT22;68131;52.508;5.502;2023-06-05T10:00:28;20.60;55.50
78788;DHT22;68131;52.508;5.502;2023-06-05T10:02:58;20.70;55.60
78788;DHT22;68131;52.508;5.502;2023-06-05T10:05:30;20.90;55.10
78788;DHT22;68131;52.508;5.502;2023-06-05T10:08:01;20.80;55.20
78788;DHT22;68131;52.508;5.502;2023-06-05T10:10:30;20.60;54.90
78788;DHT22;68131;52.508;5.502;2023-06-05T10:13:03;20.40;55.80
78788;DHT22;68131;52.508;5.502;2023-06-05T10:15:33;20.50;56.00
78788;DHT22;68131;52.508;5.502;2023-06-05T10:18:05;20.60;55.80
78788;DHT22;68131;52.508;5.502;2023-06-05T10:20:35;20.70;55.70
78788;DHT22;68131;52.508;5.502;2023-06-05T10:23:05;20.60;55.40
78788;DHT22;68131;52.508;5.502;2023-06-05T10:25:35;20.30;55.70
78788;DHT22;68131;52.508;5.502;2023-06-05T10:28:20;20.30;55.80
78788;DHT22;68131;52.508;5.502;2023-06-05T10:31:18;20.30;55.90
78788;DHT22;68131;52.508;5.502;2023-06-05T10:34:02;20.40;55.80
78788;DHT22;68131;52.508;5.502;2023-06-05T10:36:53;20.60;55.60
78788;DHT22;68131;52.508;5.502;2023-06-05T10:39:28;20.70;55.20
78788;DHT22;68131;52.508;5.502;2023-06-05T10:42:01;20.90;55.60
78788;DHT22;68131;52.508;5.502;2023-06-05T10:44:41;20.80;55.60
78788;DHT22;68131;52.508;5.502;2023-06-05T10:50:25;20.60;55.30
78788;DHT22;68131;52.508;5.502;2023-06-05T10:52:55;20.40;55.60
78788;DHT22;68131;52.508;5.502;2023-06-05T10:55:26;20.40;55.90
78788;DHT22;68131;52.508;5.502;2023-06-05T10:58:06;20.40;55.90
78788;DHT22;68131;52.508;5.502;2023-06-05T11:03:57;20.40;56.00
78788;DHT22;68131;52.508;5.502;2023-06-05T11:06:26;20.20;56.60
78788;DHT22;68131;52.508;5.502;2023-06-05T11:09:12;20.30;56.50
78788;DHT22;68131;52.508;5.502;2023-06-05T11:12:05;20.40;56.00
78788;DHT22;68131;52.508;5.502;2023-06-05T11:14:43;20.60;55.90
78788;DHT22;68131;52.508;5.502;2023-06-05T11:17:29;20.60;56.00
78788;DHT22;68131;52.508;5.502;2023-06-05T11:19:59;20.60;55.60
78788;DHT22;68131;52.508;5.502;2023-06-05T11:22:31;20.40;56.20
78788;DHT22;68131;52.508;5.502;2023-06-05T11:25:26;20.50;56.40
78788;DHT22;68131;52.508;5.502;2023-06-05T11:27:59;20.40;56.20
78788;DHT22;68131;52.508;5.502;2023-06-05T11:30:31;20.30;56.20
78788;DHT22;68131;52.508;5.502;2023-06-05T11:33:09;20.20;56.30
78788;DHT22;68131;52.508;5.502;2023-06-05T11:35:39;20.30;56.40
78788;DHT22;68131;52.508;5.502;2023-06-05T11:38:09;20.30;56.10
78788;DHT22;68131;52.508;5.502;2023-06-05T11:40:39;20.40;56.20
78788;DHT22;68131;52.508;5.502;2023-06-05T11:43:10;20.40;56.20
78788;DHT22;68131;52.508;5.502;2023-06-05T11:45:41;20.20;56.60
78788;DHT22;68131;52.508;5.502;2023-06-05T11:48:13;20.20;56.90
78788;DHT22;68131;52.508;5.502;2023-06-05T11:50:52;20.20;56.80
78788;DHT22;68131;52.508;5.502;2023-06-05T11:53:22;20.10;57.00
78788;DHT22;68131;52.508;5.502;2023-06-05T11:55:51;20.10;57.00
78788;DHT22;68131;52.508;5.502;2023-06-05T11:58:34;20.10;57.20
78788;DHT22;68131;52.508;5.502;2023-06-05T12:01:06;19.90;57.40
78788;DHT22;68131;52.508;5.502;2023-06-05T12:03:41;19.70;57.30
78788;DHT22;68131;52.508;5.502;2023-06-05T12:06:11;19.70;58.00
78788;DHT22;68131;52.508;5.502;2023-06-05T12:08:42;19.80;57.50
78788;DHT22;68131;52.508;5.502;2023-06-05T12:11:22;19.80;57.60
78788;DHT22;68131;52.508;5.502;2023-06-05T12:13:53;19.80;57.10
78788;DHT22;68131;52.508;5.502;2023-06-05T12:16:32;19.70;57.20
78788;DHT22;68131;52.508;5.502;2023-06-05T12:19:11;19.70;57.60
78788;DHT22;68131;52.508;5.502;2023-06-05T12:21:41;19.80;57.60
78788;DHT22;68131;52.508;5.502;2023-06-05T12:24:11;19.90;57.70
78788;DHT22;68131;52.508;5.502;2023-06-05T12:26:51;19.90;57.60
78788;DHT22;68131;52.508;5.502;2023-06-05T12:29:21;19.80;58.10
78788;DHT22;68131;52.508;5.502;2023-06-05T12:31:52;19.70;58.60
78788;DHT22;68131;52.508;5.502;2023-06-05T12:34:42;19.80;59.00
78788;DHT22;68131;52.508;5.502;2023-06-05T12:37:24;19.90;58.80
78788;DHT22;68131;52.508;5.502;2023-06-05T12:39:58;20.00;58.60
78788;DHT22;68131;52.508;5.502;2023-06-05T12:42:28;20.10;58.50
78788;DHT22;68131;52.508;5.502;2023-06-05T12:44:57;20.10;58.50
78788;DHT22;68131;52.508;5.502;2023-06-05T12:47:28;20.20;58.40
78788;DHT22;68131;52.508;5.502;2023-06-05T12:50:01;20.10;58.50
78788;DHT22;68131;52.508;5.502;2023-06-05T12:52:32;20.10;58.60
78788;DHT22;68131;52.508;5.502;2023-06-05T12:55:01;20.10;58.40
78788;DHT22;68131;52.508;5.502;2023-06-05T12:57:37;20.10;58.60
78788;DHT22;68131;52.508;5.502;2023-06-05T13:00:08;20.00;58.50
78788;DHT22;68131;52.508;5.502;2023-06-05T13:02:41;19.90;58.80
78788;DHT22;68131;52.508;5.502;2023-06-05T13:05:16;19.80;58.90
78788;DHT22;68131;52.508;5.502;2023-06-05T13:07:45;19.90;58.90
78788;DHT22;68131;52.508;5.502;2023-06-05T13:10:16;19.90;59.10
78788;DHT22;68131;52.508;5.502;2023-06-05T13:12:52;19.90;59.00
78788;DHT22;68131;52.508;5.502;2023-06-05T13:15:21;19.90;58.80
78788;DHT22;68131;52.508;5.502;2023-06-05T13:17:51;19.90;58.90
78788;DHT22;68131;52.508;5.502;2023-06-05T13:20:22;19.90;59.00
78788;DHT22;68131;52.508;5.502;2023-06-05T13:22:52;20.00;58.90
78788;DHT22;68131;52.508;5.502;2023-06-05T13:25:21;19.90;58.70
78788;DHT22;68131;52.508;5.502;2023-06-05T13:27:55;19.60;59.40
78788;DHT22;68131;52.508;5.502;2023-06-05T13:30:26;19.50;60.00
78788;DHT22;68131;52.508;5.502;2023-06-05T13:32:55;19.50;60.00
78788;DHT22;68131;52.508;5.502;2023-06-05T13:35:30;19.50;60.00
78788;DHT22;68131;52.508;5.502;2023-06-05T13:38:03;19.40;60.00
78788;DHT22;68131;52.508;5.502;2023-06-05T13:40:32;19.40;60.10
78788;DHT22;68131;52.508;5.502;2023-06-05T13:43:04;19.40;59.90
78788;DHT22;68131;52.508;5.502;2023-06-05T13:45:33;19.50;60.00
78788;DHT22;68131;52.508;5.502;2023-06-05T13:48:02;19.50;60.30
78788;DHT22;68131;52.508;5.502;2023-06-05T13:50:34;19.40;60.20
78788;DHT22;68131;52.508;5.502;2023-06-05T13:53:03;19.40;60.40
78788;DHT22;68131;52.508;5.502;2023-06-05T13:55:32;19.40;60.60
78788;DHT22;68131;52.508;5.502;2023-06-05T13:58:02;19.50;60.60
78788;DHT22;68131;52.508;5.502;2023-06-05T14:00:33;19.40;60.30
78788;DHT22;68131;52.508;5.502;2023-06-05T14:03:03;19.30;60.50
78788;DHT22;68131;52.508;5.502;2023-06-05T14:05:35;19.20;60.60
78788;DHT22;68131;52.508;5.502;2023-06-05T14:08:05;19.30;60.70
78788;DHT22;68131;52.508;5.502;2023-06-05T14:10:35;19.30;60.60
78788;DHT22;68131;52.508;5.502;2023-06-05T14:13:04;19.30;60.70
78788;DHT22;68131;52.508;5.502;2023-06-05T14:15:33;19.30;60.90
78788;DHT22;68131;52.508;5.502;2023-06-05T14:18:05;19.20;61.30
78788;DHT22;68131;52.508;5.502;2023-06-05T14:20:38;19.20;61.30
78788;DHT22;68131;52.508;5.502;2023-06-05T14:23:10;19.10;61.40
78788;DHT22;68131;52.508;5.502;2023-06-05T14:25:40;19.10;61.40
78788;DHT22;68131;52.508;5.502;2023-06-05T14:28:09;19.10;61.40
78788;DHT22;68131;52.508;5.502;2023-06-05T14:30:39;19.10;61.70
78788;DHT22;68131;52.508;5.502;2023-06-05T14:33:10;19.00;61.60
78788;DHT22;68131;52.508;5.502;2023-06-05T14:35:44;19.10;61.80
78788;DHT22;68131;52.508;5.502;2023-06-05T14:38:13;19.10;61.60
78788;DHT22;68131;52.508;5.502;2023-06-05T14:40:45;19.20;61.60
78788;DHT22;68131;52.508;5.502;2023-06-05T14:43:16;19.20;61.40
78788;DHT22;68131;52.508;5.502;2023-06-05T14:45:49;19.20;61.60
78788;DHT22;68131;52.508;5.502;2023-06-05T14:48:18;19.20;61.60
78788;DHT22;68131;52.508;5.502;2023-06-05T14:50:53;19.20;61.70
78788;DHT22;68131;52.508;5.502;2023-06-05T14:53:23;19.10;61.70
78788;DHT22;68131;52.508;5.502;2023-06-05T14:55:53;19.00;61.80
78788;DHT22;68131;52.508;5.502;2023-06-05T14:58:22;18.90;62.00
78788;DHT22;68131;52.508;5.502;2023-06-05T15:00:51;18.80;62.30
78788;DHT22;68131;52.508;5.502;2023-06-05T15:03:21;18.90;62.40
78788;DHT22;68131;52.508;5.502;2023-06-05T15:05:50;18.90;62.30
78788;DHT22;68131;52.508;5.502;2023-06-05T15:08:24;18.90;62.30
78788;DHT22;68131;52.508;5.502;2023-06-05T15:10:53;19.00;62.20
78788;DHT22;68131;52.508;5.502;2023-06-05T15:13:22;19.00;62.20
78788;DHT22;68131;52.508;5.502;2023-06-05T15:15:52;18.90;62.30
78788;DHT22;68131;52.508;5.502;2023-06-05T15:18:21;18.90;62.40
78788;DHT22;68131;52.508;5.502;2023-06-05T15:20:53;19.00;62.30
78788;DHT22;68131;52.508;5.502;2023-06-05T15:23:25;19.10;62.30
78788;DHT22;68131;52.508;5.502;2023-06-05T15:25:56;19.00;62.30
78788;DHT22;68131;52.508;5.502;2023-06-05T15:28:25;19.00;62.30
78788;DHT22;68131;52.508;5.502;2023-06-05T15:30:54;18.90;62.40
78788;DHT22;68131;52.508;5.502;2023-06-05T15:33:24;18.90;62.50
78788;DHT22;68131;52.508;5.502;2023-06-05T15:35:53;18.90;62.60
78788;DHT22;68131;52.508;5.502;2023-06-05T15:38:30;18.90;62.50
78788;DHT22;68131;52.508;5.502;2023-06-05T15:41:02;18.80;62.70
78788;DHT22;68131;52.508;5.502;2023-06-05T15:43:32;18.80;62.70
78788;DHT22;68131;52.508;5.502;2023-06-05T15:46:01;18.80;62.80
78788;DHT22;68131;52.508;5.502;2023-06-05T15:48:35;18.80;63.00
78788;DHT22;68131;52.508;5.502;2023-06-05T15:51:05;18.80;63.00
78788;DHT22;68131;52.508;5.502;2023-06-05T15:53:37;18.70;63.20
78788;DHT22;68131;52.508;5.502;2023-06-05T15:56:06;18.80;63.20
78788;DHT22;68131;52.508;5.502;2023-06-05T15:58:35;18.80;63.20
78788;DHT22;68131;52.508;5.502;2023-06-05T16:01:04;18.90;63.30
78788;DHT22;68131;52.508;5.502;2023-06-05T16:03:33;18.90;63.20